sensor_id;sensor_type;location;lat;lon;timestamp;pressure;altitude;pressure_sealevel;temperature;humidity
10482;BME280;5288;42.334;23.876;2023-04-04T00:01:59;56357.75;;;-140.56;92.30
10482;BME280;5288;42.334;23.876;2023-04-04T00:04:26;56403.19;;;-140.56;92.40
10482;BME280;5288;42.334;23.876;2023-04-04T00:06:53;56371.56;;;-140.56;92.92
10482;BME280;5288;42.334;23.876;2023-04-04T00:09:21;56383.44;;;-140.56;93.35
10482;BME280;5288;42.334;23.876;2023-04-04T00:11:49;56365.66;;;-140.56;93.41
10482;BME280;5288;42.334;23.876;2023-04-04T00:14:16;56369.59;;;-140.56;93.86
10482;BME280;5288;42.334;23.876;2023-04-04T00:16:43;56389.34;;;-140.56;94.56
10482;BME280;5288;42.334;23.876;2023-04-04T00:19:10;56365.66;;;-140.56;94.81
10482;BME280;5288;42.334;23.876;2023-04-04T00:21:42;56373.56;;;-140.56;94.76
10482;BME280;5288;42.334;23.876;2023-04-04T00:24:10;56373.56;;;-140.56;95.32
10482;BME280;5288;42.334;23.876;2023-04-04T00:26:37;56363.66;;;-140.56;95.25
10482;BME280;5288;42.334;23.876;2023-04-04T00:29:05;56389.34;;;-140.56;96.00
10482;BME280;5288;42.334;23.876;2023-04-04T00:31:32;56381.44;;;-140.56;96.62
10482;BME280;5288;42.334;23.876;2023-04-04T00:33:59;56377.50;;;-140.56;97.13
10482;BME280;5288;42.334;23.876;2023-04-04T00:36:26;56373.56;;;-140.56;97.29
10482;BME280;5288;42.334;23.876;2023-04-04T00:38:53;56377.50;;;-140.56;97.25
10482;BME280;5288;42.334;23.876;2023-04-04T00:41:20;56371.56;;;-140.56;96.98
10482;BME280;5288;42.334;23.876;2023-04-04T00:43:47;56393.31;;;-140.56;97.10
10482;BME280;5288;42.334;23.876;2023-04-04T00:46:16;56393.31;;;-140.56;97.25
10482;BME280;5288;42.334;23.876;2023-04-04T00:48:44;56393.31;;;-140.56;96.98
10482;BME280;5288;42.334;23.876;2023-04-04T00:51:11;56377.50;;;-140.56;96.59
10482;BME280;5288;42.334;23.876;2023-04-04T00:53:38;56361.69;;;-140.56;97.39
10482;BME280;5288;42.334;23.876;2023-04-04T00:56:08;56369.59;;;-140.56;97.10
10482;BME280;5288;42.334;23.876;2023-04-04T00:58:35;56367.63;;;-140.56;97.45
10482;BME280;5288;42.334;23.876;2023-04-04T01:01:02;56387.38;;;-140.56;96.76
10482;BME280;5288;42.334;23.876;2023-04-04T01:03:31;56326.13;;;-140.56;96.64
10482;BME280;5288;42.334;23.876;2023-04-04T01:05:59;56375.53;;;-140.56;96.99
10482;BME280;5288;42.334;23.876;2023-04-04T01:08:28;56363.66;;;-140.56;96.35
10482;BME280;5288;42.334;23.876;2023-04-04T01:10:56;56387.38;;;-140.56;97.06
10482;BME280;5288;42.334;23.876;2023-04-04T01:13:23;56345.88;;;-140.56;97.53
10482;BME280;5288;42.334;23.876;2023-04-04T01:15:51;56399.25;;;-140.56;97.49
10482;BME280;5288;42.334;23.876;2023-04-04T01:18:20;56401.22;;;-140.56;97.88
10482;BME280;5288;42.334;23.876;2023-04-04T01:20:54;56407.16;;;-140.56;97.39
10482;BME280;5288;42.334;23.876;2023-04-04T01:23:31;56397.25;;;-140.56;97.59
10482;BME280;5288;42.334;23.876;2023-04-04T01:26:03;56363.66;;;-140.56;96.81
10482;BME280;5288;42.334;23.876;2023-04-04T01:28:31;56385.41;;;-140.56;96.28
10482;BME280;5288;42.334;23.876;2023-04-04T01:30:59;56375.53;;;-140.56;95.99
10482;BME280;5288;42.334;23.876;2023-04-04T01:33:28;56363.66;;;-140.56;95.92
10482;BME280;5288;42.334;23.876;2023-04-04T01:36:03;56385.41;;;-140.56;95.78
10482;BME280;5288;42.334;23.876;2023-04-04T01:38:38;56361.69;;;-140.56;95.71
10482;BME280;5288;42.334;23.876;2023-04-04T01:41:09;56391.34;;;-140.56;95.47
10482;BME280;5288;42.334;23.876;2023-04-04T01:43:37;56349.84;;;-140.56;95.01
10482;BME280;5288;42.334;23.876;2023-04-04T01:46:04;56399.25;;;-140.56;95.18
10482;BME280;5288;42.334;23.876;2023-04-04T01:48:31;56365.66;;;-140.56;94.95
10482;BME280;5288;42.334;23.876;2023-04-04T01:50:59;56395.28;;;-140.56;94.74
10482;BME280;5288;42.334;23.876;2023-04-04T01:53:27;56334.03;;;-140.56;94.85
10482;BME280;5288;42.334;23.876;2023-04-04T01:55:54;56377.50;;;-140.56;95.18
10482;BME280;5288;42.334;23.876;2023-04-04T01:58:23;56403.19;;;-140.56;94.73
10482;BME280;5288;42.334;23.876;2023-04-04T02:00:50;56393.31;;;-140.56;94.69
10482;BME280;5288;42.334;23.876;2023-04-04T02:03:17;56355.75;;;-140.56;95.12
10482;BME280;5288;42.334;23.876;2023-04-04T02:05:44;56389.34;;;-140.56;94.25
10482;BME280;5288;42.334;23.876;2023-04-04T02:08:11;56375.53;;;-140.56;94.40
10482;BME280;5288;42.334;23.876;2023-04-04T02:10:39;56365.66;;;-140.56;94.13
10482;BME280;5288;42.334;23.876;2023-04-04T02:13:06;56377.50;;;-140.56;93.85
10482;BME280;5288;42.334;23.876;2023-04-04T02:15:34;56401.22;;;-140.56;94.30
10482;BME280;5288;42.334;23.876;2023-04-04T02:18:01;56375.53;;;-140.56;94.29
10482;BME280;5288;42.334;23.876;2023-04-04T02:20:28;56365.66;;;-140.56;94.05
10482;BME280;5288;42.334;23.876;2023-04-04T02:22:55;56363.66;;;-140.56;94.31
10482;BME280;5288;42.334;23.876;2023-04-04T02:25:24;56395.28;;;-140.56;93.35
10482;BME280;5288;42.334;23.876;2023-04-04T02:27:51;56389.34;;;-140.56;93.55
10482;BME280;5288;42.334;23.876;2023-04-04T02:30:18;56351.81;;;-140.56;93.02
10482;BME280;5288;42.334;23.876;2023-04-04T02:32:46;56371.56;;;-140.56;93.09
10482;BME280;5288;42.334;23.876;2023-04-04T02:35:13;56365.66;;;-140.56;93.44
10482;BME280;5288;42.334;23.876;2023-04-04T02:37:43;56351.81;;;-140.56;93.60
10482;BME280;5288;42.334;23.876;2023-04-04T02:40:11;56389.34;;;-140.56;93.35
10482;BME280;5288;42.334;23.876;2023-04-04T02:42:41;56381.44;;;-140.56;93.94
10482;BME280;5288;42.334;23.876;2023-04-04T02:45:10;56359.72;;;-140.56;93.42
10482;BME280;5288;42.334;23.876;2023-04-04T02:47:39;56393.31;;;-140.56;93.25
10482;BME280;5288;42.334;23.876;2023-04-04T02:50:09;56341.94;;;-140.56;93.69
10482;BME280;5288;42.334;23.876;2023-04-04T02:52:36;56373.56;;;-140.56;94.11
10482;BME280;5288;42.334;23.876;2023-04-04T02:55:05;56389.34;;;-140.56;95.09
10482;BME280;5288;42.334;23.876;2023-04-04T02:57:32;56393.31;;;-140.56;95.41
10482;BME280;5288;42.334;23.876;2023-04-04T02:59:59;56365.66;;;-140.56;95.74
10482;BME280;5288;42.334;23.876;2023-04-04T03:02:27;56397.25;;;-140.56;95.80
10482;BME280;5288;42.334;23.876;2023-04-04T03:04:54;56387.38;;;-140.56;95.57
10482;BME280;5288;42.334;23.876;2023-04-04T03:07:22;56363.66;;;-140.56;95.25
10482;BME280;5288;42.334;23.876;2023-04-04T03:09:50;56383.44;;;-140.56;94.48
10482;BME280;5288;42.334;23.876;2023-04-04T03:12:19;56355.75;;;-140.56;94.81
10482;BME280;5288;42.334;23.876;2023-04-04T03:14:46;56389.34;;;-140.56;94.45
10482;BME280;5288;42.334;23.876;2023-04-04T03:17:13;56397.25;;;-140.56;94.40
10482;BME280;5288;42.334;23.876;2023-04-04T03:19:42;56377.50;;;-140.56;94.64
10482;BME280;5288;42.334;23.876;2023-04-04T03:22:09;56387.38;;;-140.56;94.57
10482;BME280;5288;42.334;23.876;2023-04-04T03:24:37;56387.38;;;-140.56;94.83
10482;BME280;5288;42.334;23.876;2023-04-04T03:27:04;56415.06;;;-140.56;94.77
10482;BME280;5288;42.334;23.876;2023-04-04T03:29:31;56415.06;;;-140.56;94.30
10482;BME280;5288;42.334;23.876;2023-04-04T03:31:58;56399.25;;;-140.56;94.16
10482;BME280;5288;42.334;23.876;2023-04-04T03:34:25;56351.81;;;-140.56;93.72
10482;BME280;5288;42.334;23.876;2023-04-04T03:36:52;56361.69;;;-140.56;93.89
10482;BME280;5288;42.334;23.876;2023-04-04T03:39:19;56399.25;;;-140.56;93.94
10482;BME280;5288;42.334;23.876;2023-04-04T03:41:47;56363.66;;;-140.56;94.13
10482;BME280;5288;42.334;23.876;2023-04-04T03:44:14;56369.59;;;-140.56;93.89
10482;BME280;5288;42.334;23.876;2023-04-04T03:46:41;56387.38;;;-140.56;93.74
10482;BME280;5288;42.334;23.876;2023-04-04T03:49:08;56428.88;;;-140.56;93.06
10482;BME280;5288;42.334;23.876;2023-04-04T03:51:35;56361.69;;;-140.56;92.46
10482;BME280;5288;42.334;23.876;2023-04-04T03:54:02;56353.78;;;-140.56;91.00
10482;BME280;5288;42.334;23.876;2023-04-04T03:56:29;56385.41;;;-140.56;90.56
10482;BME280;5288;42.334;23.876;2023-04-04T03:58:58;56304.38;;;-140.56;89.63
10482;BME280;5288;42.334;23.876;2023-04-04T04:01:25;56369.59;;;-140.56;89.44
10482;BME280;5288;42.334;23.876;2023-04-04T04:03:52;56381.44;;;-140.56;89.27
10482;BME280;5288;42.334;23.876;2023-04-04T04:06:19;56432.84;;;-140.56;89.34
10482;BME280;5288;42.334;23.876;2023-04-04T04:08:46;56377.50;;;-140.56;90.01
10482;BME280;5288;42.334;23.876;2023-04-04T04:11:13;56420.97;;;-140.56;90.61
10482;BME280;5288;42.334;23.876;2023-04-04T04:13:40;56375.53;;;-140.56;90.37
10482;BME280;5288;42.334;23.876;2023-04-04T04:16:08;56381.44;;;-140.56;91.05
10482;BME280;5288;42.334;23.876;2023-04-04T04:18:35;56373.56;;;-140.56;92.09
10482;BME280;5288;42.334;23.876;2023-04-04T04:21:02;56357.75;;;-140.56;91.73
10482;BME280;5288;42.334;23.876;2023-04-04T04:23:30;56401.22;;;-140.56;92.41
10482;BME280;5288;42.334;23.876;2023-04-04T04:25:56;56381.44;;;-140.56;93.30
10482;BME280;5288;42.334;23.876;2023-04-04T04:28:24;56405.16;;;-140.56;93.54
10482;BME280;5288;42.334;23.876;2023-04-04T04:30:52;56401.22;;;-140.56;93.75
10482;BME280;5288;42.334;23.876;2023-04-04T04:33:20;56389.34;;;-140.56;94.03
10482;BME280;5288;42.334;23.876;2023-04-04T04:35:58;56393.31;;;-140.56;93.38
10482;BME280;5288;42.334;23.876;2023-04-04T04:38:25;56353.78;;;-140.56;93.25
10482;BME280;5288;42.334;23.876;2023-04-04T04:40:53;56379.47;;;-140.56;93.24
10482;BME280;5288;42.334;23.876;2023-04-04T04:43:20;56379.47;;;-140.56;93.07
10482;BME280;5288;42.334;23.876;2023-04-04T04:45:47;56389.34;;;-140.56;93.23
10482;BME280;5288;42.334;23.876;2023-04-04T04:48:14;56419.00;;;-140.56;92.61
10482;BME280;5288;42.334;23.876;2023-04-04T04:50:43;56385.41;;;-140.56;92.30
10482;BME280;5288;42.334;23.876;2023-04-04T04:53:11;56387.38;;;-140.56;92.13
10482;BME280;5288;42.334;23.876;2023-04-04T04:55:38;56393.31;;;-140.56;92.21
10482;BME280;5288;42.334;23.876;2023-04-04T04:58:07;56381.44;;;-140.56;92.82
10482;BME280;5288;42.334;23.876;2023-04-04T05:00:35;56409.13;;;-140.56;93.25
10482;BME280;5288;42.334;23.876;2023-04-04T05:03:02;56357.75;;;-140.56;92.80
10482;BME280;5288;42.334;23.876;2023-04-04T05:05:31;56383.44;;;-140.56;93.08
10482;BME280;5288;42.334;23.876;2023-04-04T05:08:00;56397.25;;;-140.56;92.88
10482;BME280;5288;42.334;23.876;2023-04-04T05:10:27;56361.69;;;-140.56;92.96
10482;BME280;5288;42.334;23.876;2023-04-04T05:12:54;56371.56;;;-140.56;93.09
10482;BME280;5288;42.334;23.876;2023-04-04T05:15:21;56393.31;;;-140.56;92.99
10482;BME280;5288;42.334;23.876;2023-04-04T05:17:50;56393.31;;;-140.56;93.04
10482;BME280;5288;42.334;23.876;2023-04-04T05:20:18;56405.16;;;-140.56;92.69
10482;BME280;5288;42.334;23.876;2023-04-04T05:22:45;56375.53;;;-140.56;92.02
10482;BME280;5288;42.334;23.876;2023-04-04T05:25:13;56371.56;;;-140.56;92.45
10482;BME280;5288;42.334;23.876;2023-04-04T05:27:40;56353.78;;;-140.56;92.42
10482;BME280;5288;42.334;23.876;2023-04-04T05:30:08;56353.78;;;-140.56;92.24
10482;BME280;5288;42.334;23.876;2023-04-04T05:32:35;56411.09;;;-140.56;92.13
10482;BME280;5288;42.334;23.876;2023-04-04T05:35:02;56371.56;;;-140.56;92.14
10482;BME280;5288;42.334;23.876;2023-04-04T05:37:29;56345.88;;;-140.56;92.16
10482;BME280;5288;42.334;23.876;2023-04-04T05:39:56;56371.56;;;-140.56;91.81
10482;BME280;5288;42.334;23.876;2023-04-04T05:42:24;56405.16;;;-140.56;91.86
10482;BME280;5288;42.334;23.876;2023-04-04T05:44:51;56371.56;;;-140.56;91.67
10482;BME280;5288;42.334;23.876;2023-04-04T05:47:18;56395.28;;;-140.56;92.03
10482;BME280;5288;42.334;23.876;2023-04-04T05:49:46;56403.19;;;-140.56;91.83
10482;BME280;5288;42.334;23.876;2023-04-04T05:52:13;56353.78;;;-140.56;90.90
10482;BME280;5288;42.334;23.876;2023-04-04T05:54:40;56383.44;;;-140.56;91.20
10482;BME280;5288;42.334;23.876;2023-04-04T05:57:07;56417.03;;;-140.56;91.15
10482;BME280;5288;42.334;23.876;2023-04-04T05:59:36;56393.31;;;-140.56;90.92
10482;BME280;5288;42.334;23.876;2023-04-04T06:02:03;56379.47;;;-140.56;90.34
10482;BME280;5288;42.334;23.876;2023-04-04T06:04:32;56391.34;;;-140.56;89.96
10482;BME280;5288;42.334;23.876;2023-04-04T06:06:59;56391.34;;;-140.56;89.49
10482;BME280;5288;42.334;23.876;2023-04-04T06:09:26;56407.16;;;-140.56;89.80
10482;BME280;5288;42.334;23.876;2023-04-04T06:11:53;56361.69;;;-140.56;89.44
10482;BME280;5288;42.334;23.876;2023-04-04T06:14:20;56391.34;;;-140.56;88.89
10482;BME280;5288;42.334;23.876;2023-04-04T06:16:49;56397.25;;;-140.56;88.60
10482;BME280;5288;42.334;23.876;2023-04-04T06:19:16;56357.75;;;-140.56;88.78
10482;BME280;5288;42.334;23.876;2023-04-04T06:21:43;56391.34;;;-140.56;88.73
10482;BME280;5288;42.334;23.876;2023-04-04T06:24:09;56365.66;;;-140.56;88.58
10482;BME280;5288;42.334;23.876;2023-04-04T06:26:36;56355.75;;;-140.56;88.80
10482;BME280;5288;42.334;23.876;2023-04-04T06:29:03;56379.47;;;-140.56;88.48
10482;BME280;5288;42.334;23.876;2023-04-04T06:31:30;56383.44;;;-140.56;87.77
10482;BME280;5288;42.334;23.876;2023-04-04T06:33:58;56365.66;;;-140.56;87.73
10482;BME280;5288;42.334;23.876;2023-04-04T06:36:26;56359.72;;;-140.56;87.16
10482;BME280;5288;42.334;23.876;2023-04-04T06:38:54;56357.75;;;-140.56;87.03
10482;BME280;5288;42.334;23.876;2023-04-04T06:41:21;56336.00;;;-140.56;87.05
10482;BME280;5288;42.334;23.876;2023-04-04T06:43:48;56367.63;;;-140.56;87.14
10482;BME280;5288;42.334;23.876;2023-04-04T06:46:15;56383.44;;;-140.56;87.38
10482;BME280;5288;42.334;23.876;2023-04-04T06:48:42;56328.09;;;-140.56;87.50
10482;BME280;5288;42.334;23.876;2023-04-04T06:51:10;56330.06;;;-140.56;88.16
10482;BME280;5288;42.334;23.876;2023-04-04T06:53:38;56405.16;;;-140.56;88.89
10482;BME280;5288;42.334;23.876;2023-04-04T06:56:05;56381.44;;;-140.56;88.95
10482;BME280;5288;42.334;23.876;2023-04-04T06:58:32;56405.16;;;-140.56;89.00
10482;BME280;5288;42.334;23.876;2023-04-04T07:01:00;56409.13;;;-140.56;89.07
10482;BME280;5288;42.334;23.876;2023-04-04T07:03:27;56383.44;;;-140.56;88.84
10482;BME280;5288;42.334;23.876;2023-04-04T07:05:55;56387.38;;;-140.56;89.07
10482;BME280;5288;42.334;23.876;2023-04-04T07:08:23;56373.56;;;-140.56;89.39
10482;BME280;5288;42.334;23.876;2023-04-04T07:10:50;56385.41;;;-140.56;88.75
10482;BME280;5288;42.334;23.876;2023-04-04T07:13:17;56401.22;;;-140.56;88.06
10482;BME280;5288;42.334;23.876;2023-04-04T07:15:44;56363.66;;;-140.56;87.53
10482;BME280;5288;42.334;23.876;2023-04-04T07:18:14;56373.56;;;-140.56;87.02
10482;BME280;5288;42.334;23.876;2023-04-04T07:20:41;56385.41;;;-140.56;87.10
10482;BME280;5288;42.334;23.876;2023-04-04T07:23:08;56377.50;;;-140.56;87.01
10482;BME280;5288;42.334;23.876;2023-04-04T07:25:37;56379.47;;;-140.56;86.60
10482;BME280;5288;42.334;23.876;2023-04-04T07:28:04;56359.72;;;-140.56;87.02
10482;BME280;5288;42.334;23.876;2023-04-04T07:30:31;56383.44;;;-140.56;87.06
10482;BME280;5288;42.334;23.876;2023-04-04T07:32:59;56405.16;;;-140.56;87.12
10482;BME280;5288;42.334;23.876;2023-04-04T07:35:26;56381.44;;;-140.56;86.95
10482;BME280;5288;42.334;23.876;2023-04-04T07:37:53;56334.03;;;-140.56;85.93
10482;BME280;5288;42.334;23.876;2023-04-04T07:40:20;56403.19;;;-140.56;85.68
10482;BME280;5288;42.334;23.876;2023-04-04T07:42:49;56367.63;;;-140.56;85.92
10482;BME280;5288;42.334;23.876;2023-04-04T07:45:18;56413.06;;;-140.56;86.44
10482;BME280;5288;42.334;23.876;2023-04-04T07:47:46;56371.56;;;-140.56;86.62
10482;BME280;5288;42.334;23.876;2023-04-04T07:50:13;56399.25;;;-140.56;86.68
10482;BME280;5288;42.334;23.876;2023-04-04T07:52:41;56387.38;;;-140.56;87.18
10482;BME280;5288;42.334;23.876;2023-04-04T07:55:08;56371.56;;;-140.56;87.16
10482;BME280;5288;42.334;23.876;2023-04-04T07:57:36;56373.56;;;-140.56;87.15
10482;BME280;5288;42.334;23.876;2023-04-04T08:00:07;56407.16;;;-140.56;86.71
10482;BME280;5288;42.334;23.876;2023-04-04T08:02:35;56403.19;;;-140.56;86.05
10482;BME280;5288;42.334;23.876;2023-04-04T08:05:02;56387.38;;;-140.56;86.78
10482;BME280;5288;42.334;23.876;2023-04-04T08:07:29;56373.56;;;-140.56;86.25
10482;BME280;5288;42.334;23.876;2023-04-04T08:09:56;56369.59;;;-140.56;85.84
10482;BME280;5288;42.334;23.876;2023-04-04T08:12:23;56357.75;;;-140.56;86.22
10482;BME280;5288;42.334;23.876;2023-04-04T08:14:50;56375.53;;;-140.56;85.46
10482;BME280;5288;42.334;23.876;2023-04-04T08:17:19;56387.38;;;-140.56;85.04
10482;BME280;5288;42.334;23.876;2023-04-04T08:19:46;56353.78;;;-140.56;84.67
10482;BME280;5288;42.334;23.876;2023-04-04T08:22:13;56351.81;;;-140.56;83.16
10482;BME280;5288;42.334;23.876;2023-04-04T08:24:40;56365.66;;;-140.56;82.46
10482;BME280;5288;42.334;23.876;2023-04-04T08:27:07;56369.59;;;-140.56;81.23
10482;BME280;5288;42.334;23.876;2023-04-04T08:29:34;56373.56;;;-140.56;80.67
10482;BME280;5288;42.334;23.876;2023-04-04T08:32:01;56387.38;;;-140.56;79.29
10482;BME280;5288;42.334;23.876;2023-04-04T08:34:29;56385.41;;;-140.56;78.91
10482;BME280;5288;42.334;23.876;2023-04-04T08:36:56;56355.75;;;-140.56;79.26
10482;BME280;5288;42.334;23.876;2023-04-04T08:39:24;56385.41;;;-140.56;79.70
10482;BME280;5288;42.334;23.876;2023-04-04T08:41:56;56359.72;;;-140.56;79.83
10482;BME280;5288;42.334;23.876;2023-04-04T08:44:27;56365.66;;;-140.56;79.73
10482;BME280;5288;42.334;23.876;2023-04-04T08:46:55;56343.91;;;-140.56;80.12
10482;BME280;5288;42.334;23.876;2023-04-04T08:49:25;56347.84;;;-140.56;81.01
10482;BME280;5288;42.334;23.876;2023-04-04T08:51:56;56387.38;;;-140.56;81.21
10482;BME280;5288;42.334;23.876;2023-04-04T08:54:24;56383.44;;;-140.56;80.13
10482;BME280;5288;42.334;23.876;2023-04-04T08:56:52;56351.81;;;-140.56;80.03
10482;BME280;5288;42.334;23.876;2023-04-04T08:59:20;56377.50;;;-140.56;79.12
10482;BME280;5288;42.334;23.876;2023-04-04T09:01:47;56345.88;;;-140.56;78.87
10482;BME280;5288;42.334;23.876;2023-04-04T09:04:17;56341.94;;;-140.56;78.62
10482;BME280;5288;42.334;23.876;2023-04-04T09:06:45;56349.84;;;-140.56;78.63
10482;BME280;5288;42.334;23.876;2023-04-04T09:09:15;56361.69;;;-140.56;77.62
10482;BME280;5288;42.334;23.876;2023-04-04T09:11:43;56322.16;;;-140.56;77.18
10482;BME280;5288;42.334;23.876;2023-04-04T09:14:11;56373.56;;;-140.56;77.06
10482;BME280;5288;42.334;23.876;2023-04-04T09:16:38;56375.53;;;-140.56;75.71
10482;BME280;5288;42.334;23.876;2023-04-04T09:19:05;56369.59;;;-140.56;74.76
10482;BME280;5288;42.334;23.876;2023-04-04T09:21:32;56332.03;;;-140.56;74.66
10482;BME280;5288;42.334;23.876;2023-04-04T09:24:00;56361.69;;;-140.56;74.64
10482;BME280;5288;42.334;23.876;2023-04-04T09:26:29;56357.75;;;-140.56;74.61
10482;BME280;5288;42.334;23.876;2023-04-04T09:29:12;56318.22;;;-140.56;74.52
10482;BME280;5288;42.334;23.876;2023-04-04T09:31:40;56341.94;;;-140.56;74.68
10482;BME280;5288;42.334;23.876;2023-04-04T09:34:11;56337.97;;;-140.56;74.28
10482;BME280;5288;42.334;23.876;2023-04-04T09:36:39;56304.38;;;-140.56;74.01
10482;BME280;5288;42.334;23.876;2023-04-04T09:39:07;56322.16;;;-140.56;72.83
10482;BME280;5288;42.334;23.876;2023-04-04T09:41:36;56353.78;;;-140.56;73.41
10482;BME280;5288;42.334;23.876;2023-04-04T09:44:04;56365.66;;;-140.56;73.72
10482;BME280;5288;42.334;23.876;2023-04-04T09:46:31;56369.59;;;-140.56;73.10
10482;BME280;5288;42.334;23.876;2023-04-04T09:49:00;56357.75;;;-140.56;72.28
10482;BME280;5288;42.334;23.876;2023-04-04T09:51:32;56393.31;;;-140.56;73.10
10482;BME280;5288;42.334;23.876;2023-04-04T09:54:01;56387.38;;;-140.56;74.15
10482;BME280;5288;42.334;23.876;2023-04-04T09:56:28;56385.41;;;-140.56;74.62
10482;BME280;5288;42.334;23.876;2023-04-04T09:58:56;56379.47;;;-140.56;75.32
10482;BME280;5288;42.334;23.876;2023-04-04T10:01:25;56379.47;;;-140.56;75.23
10482;BME280;5288;42.334;23.876;2023-04-04T10:03:54;56395.28;;;-140.56;75.11
10482;BME280;5288;42.334;23.876;2023-04-04T10:06:21;56413.06;;;-140.56;74.92
10482;BME280;5288;42.334;23.876;2023-04-04T10:08:50;56405.16;;;-140.56;75.32
10482;BME280;5288;42.334;23.876;2023-04-04T10:11:27;56395.28;;;-140.56;75.84
10482;BME280;5288;42.334;23.876;2023-04-04T10:13:57;56377.50;;;-140.56;76.50
10482;BME280;5288;42.334;23.876;2023-04-04T10:16:25;56428.88;;;-140.56;76.98
10482;BME280;5288;42.334;23.876;2023-04-04T10:18:52;56391.34;;;-140.56;79.18
10482;BME280;5288;42.334;23.876;2023-04-04T10:21:19;56391.34;;;-140.56;79.73
10482;BME280;5288;42.334;23.876;2023-04-04T10:23:47;56426.91;;;-140.56;80.23
10482;BME280;5288;42.334;23.876;2023-04-04T10:26:15;56436.78;;;-140.56;80.51
10482;BME280;5288;42.334;23.876;2023-04-04T10:28:42;56409.13;;;-140.56;80.26
10482;BME280;5288;42.334;23.876;2023-04-04T10:31:16;56407.16;;;-140.56;80.06
10482;BME280;5288;42.334;23.876;2023-04-04T10:33:49;56438.78;;;-140.56;79.31
10482;BME280;5288;42.334;23.876;2023-04-04T10:36:21;56420.97;;;-140.56;80.05
10482;BME280;5288;42.334;23.876;2023-04-04T10:38:56;56401.22;;;-140.56;79.85
10482;BME280;5288;42.334;23.876;2023-04-04T10:41:26;56430.88;;;-140.56;79.95
10482;BME280;5288;42.334;23.876;2023-04-04T10:43:59;56381.44;;;-140.56;79.99
10482;BME280;5288;42.334;23.876;2023-04-04T10:46:30;56440.75;;;-140.56;79.63
10482;BME280;5288;42.334;23.876;2023-04-04T10:49:00;56420.97;;;-140.56;79.59
10482;BME280;5288;42.334;23.876;2023-04-04T10:51:29;56424.94;;;-140.56;79.55
10482;BME280;5288;42.334;23.876;2023-04-04T10:53:57;56434.81;;;-140.56;79.78
10482;BME280;5288;42.334;23.876;2023-04-04T10:56:25;56436.78;;;-140.56;80.33
10482;BME280;5288;42.334;23.876;2023-04-04T10:59:10;56411.09;;;-140.56;80.66
10482;BME280;5288;42.334;23.876;2023-04-04T11:01:49;56401.22;;;-140.56;80.11
10482;BME280;5288;42.334;23.876;2023-04-04T11:04:28;56428.88;;;-140.56;79.72
10482;BME280;5288;42.334;23.876;2023-04-04T11:07:14;56409.13;;;-140.56;79.51
10482;BME280;5288;42.334;23.876;2023-04-04T11:09:54;56413.06;;;-140.56;78.92
10482;BME280;5288;42.334;23.876;2023-04-04T11:12:29;56426.91;;;-140.56;78.94
10482;BME280;5288;42.334;23.876;2023-04-04T11:15:07;56424.94;;;-140.56;79.03
10482;BME280;5288;42.334;23.876;2023-04-04T11:18:05;56438.78;;;-140.56;79.54
10482;BME280;5288;42.334;23.876;2023-04-04T11:20:33;56417.03;;;-140.56;79.50
10482;BME280;5288;42.334;23.876;2023-04-04T11:23:08;56436.78;;;-140.56;79.58
10482;BME280;5288;42.334;23.876;2023-04-04T11:25:38;56438.78;;;-140.56;80.13
10482;BME280;5288;42.334;23.876;2023-04-04T11:28:14;56462.47;;;-140.56;81.24
10482;BME280;5288;42.334;23.876;2023-04-04T11:31:25;56405.16;;;-140.56;82.05
10482;BME280;5288;42.334;23.876;2023-04-04T11:33:56;56438.78;;;-140.56;82.15
10482;BME280;5288;42.334;23.876;2023-04-04T11:36:48;56434.81;;;-140.56;82.10
10482;BME280;5288;42.334;23.876;2023-04-04T11:39:23;56430.88;;;-140.56;81.34
10482;BME280;5288;42.334;23.876;2023-04-04T11:41:52;56440.75;;;-140.56;81.01
10482;BME280;5288;42.334;23.876;2023-04-04T11:44:20;56428.88;;;-140.56;80.64
10482;BME280;5288;42.334;23.876;2023-04-04T11:46:50;56424.94;;;-140.56;79.73
10482;BME280;5288;42.334;23.876;2023-04-04T11:49:26;56434.81;;;-140.56;80.15
10482;BME280;5288;42.334;23.876;2023-04-04T11:51:54;56422.97;;;-140.56;80.09
10482;BME280;5288;42.334;23.876;2023-04-04T11:54:21;56444.69;;;-140.56;79.86
10482;BME280;5288;42.334;23.876;2023-04-04T11:56:49;56424.94;;;-140.56;78.89
10482;BME280;5288;42.334;23.876;2023-04-04T11:59:18;56434.81;;;-140.56;80.15
10482;BME280;5288;42.334;23.876;2023-04-04T12:01:45;56409.13;;;-140.56;80.35
10482;BME280;5288;42.334;23.876;2023-04-04T12:04:16;56460.50;;;-140.56;79.54
10482;BME280;5288;42.334;23.876;2023-04-04T12:06:48;56401.22;;;-140.56;79.17
10482;BME280;5288;42.334;23.876;2023-04-04T12:09:17;56428.88;;;-140.56;79.30
10482;BME280;5288;42.334;23.876;2023-04-04T12:11:45;56444.69;;;-140.56;79.35
10482;BME280;5288;42.334;23.876;2023-04-04T12:14:16;56420.97;;;-140.56;80.03
10482;BME280;5288;42.334;23.876;2023-04-04T12:16:43;56432.84;;;-140.56;79.99
10482;BME280;5288;42.334;23.876;2023-04-04T12:19:10;56432.84;;;-140.56;79.42
10482;BME280;5288;42.334;23.876;2023-04-04T12:21:38;56440.75;;;-140.56;79.14
10482;BME280;5288;42.334;23.876;2023-04-04T12:24:07;56434.81;;;-140.56;77.77
10482;BME280;5288;42.334;23.876;2023-04-04T12:26:35;56428.88;;;-140.56;77.19
10482;BME280;5288;42.334;23.876;2023-04-04T12:29:03;56420.97;;;-140.56;77.65
10482;BME280;5288;42.334;23.876;2023-04-04T12:31:30;56458.53;;;-140.56;76.98
10482;BME280;5288;42.334;23.876;2023-04-04T12:33:58;56472.38;;;-140.56;76.28
10482;BME280;5288;42.334;23.876;2023-04-04T12:36:25;56460.50;;;-140.56;77.11
10482;BME280;5288;42.334;23.876;2023-04-04T12:38:57;56466.44;;;-140.56;77.51
10482;BME280;5288;42.334;23.876;2023-04-04T12:41:27;56478.28;;;-140.56;77.37
10482;BME280;5288;42.334;23.876;2023-04-04T12:44:01;56464.47;;;-140.56;77.75
10482;BME280;5288;42.334;23.876;2023-04-04T12:46:34;56436.78;;;-140.56;77.43
10482;BME280;5288;42.334;23.876;2023-04-04T12:49:04;56387.38;;;-140.56;77.35